sensor_id;sensor_type;location;lat;lon;timestamp;P1;durP1;ratioP1;P2;durP2;ratioP2
55136;SDS011;41032;47.818;-3.732;2023-01-23T06:21:39;47.40;;;32.65;;
55136;SDS011;41032;47.818;-3.732;2023-01-23T06:24:08;48.72;;;33.63;;
55136;SDS011;41032;47.818;-3.732;2023-01-23T06:26:37;49.38;;;36.10;;
55136;SDS011;41032;47.818;-3.732;2023-01-23T06:29:05;51.17;;;34.75;;
55136;SDS011;41032;47.818;-3.732;2023-01-23T06:31:33;56.47;;;36.50;;
55136;SDS011;41032;47.818;-3.732;2023-01-23T06:34:01;52.72;;;35.20;;
55136;SDS011;41032;47.818;-3.732;2023-01-23T06:36:29;58.00;;;37.88;;
55136;SDS011;41032;47.818;-3.732;2023-01-23T06:38:57;52.72;;;35.22;;
55136;SDS011;41032;47.818;-3.732;2023-01-23T06:41:26;51.95;;;36.13;;
55136;SDS011;41032;47.818;-3.732;2023-01-23T06:43:54;48.65;;;33.70;;
55136;SDS011;41032;47.818;-3.732;2023-01-23T06:46:21;51.65;;;34.58;;
55136;SDS011;41032;47.818;-3.732;2023-01-23T06:48:50;55.03;;;36.17;;
55136;SDS011;41032;47.818;-3.732;2023-01-23T06:51:18;52.03;;;35.28;;
55136;SDS011;41032;47.818;-3.732;2023-01-23T06:53:46;53.38;;;34.92;;
55136;SDS011;41032;47.818;-3.732;2023-01-23T06:56:15;56.53;;;34.95;;
55136;SDS011;41032;47.818;-3.732;2023-01-23T06:58:44;56.72;;;37.17;;
55136;SDS011;41032;47.818;-3.732;2023-01-23T07:01:14;48.60;;;34.88;;
55136;SDS011;41032;47.818;-3.732;2023-01-23T07:03:43;51.13;;;34.97;;
55136;SDS011;41032;47.818;-3.732;2023-01-23T07:06:12;51.03;;;35.53;;
55136;SDS011;41032;47.818;-3.732;2023-01-23T07:08:41;49.50;;;35.63;;
55136;SDS011;41032;47.818;-3.732;2023-01-23T07:11:09;45.30;;;32.40;;
55136;SDS011;41032;47.818;-3.732;2023-01-23T07:13:38;48.58;;;34.20;;
55136;SDS011;41032;47.818;-3.732;2023-01-23T07:16:06;49.03;;;32.78;;
55136;SDS011;41032;47.818;-3.732;2023-01-23T07:18:35;53.72;;;34.58;;
55136;SDS011;41032;47.818;-3.732;2023-01-23T07:21:04;46.10;;;31.83;;
55136;SDS011;41032;47.818;-3.732;2023-01-23T07:23:33;45.15;;;30.85;;
55136;SDS011;41032;47.818;-3.732;2023-01-23T07:26:02;50.45;;;34.30;;
55136;SDS011;41032;47.818;-3.732;2023-01-23T07:28:35;48.38;;;32.50;;
55136;SDS011;41032;47.818;-3.732;2023-01-23T07:31:03;49.00;;;32.08;;
55136;SDS011;41032;47.818;-3.732;2023-01-23T07:33:32;40.70;;;28.77;;
55136;SDS011;41032;47.818;-3.732;2023-01-23T07:36:03;43.35;;;31.33;;
55136;SDS011;41032;47.818;-3.732;2023-01-23T07:38:32;50.55;;;33.13;;
55136;SDS011;41032;47.818;-3.732;2023-01-23T07:41:01;44.92;;;31.25;;
55136;SDS011;41032;47.818;-3.732;2023-01-23T07:43:29;46.88;;;32.83;;
55136;SDS011;41032;47.818;-3.732;2023-01-23T07:45:58;46.80;;;33.08;;
55136;SDS011;41032;47.818;-3.732;2023-01-23T07:48:27;48.20;;;33.35;;
55136;SDS011;41032;47.818;-3.732;2023-01-23T07:50:54;53.65;;;31.80;;
55136;SDS011;41032;47.818;-3.732;2023-01-23T07:53:22;49.28;;;31.55;;
55136;SDS011;41032;47.818;-3.732;2023-01-23T07:55:49;44.92;;;32.00;;
55136;SDS011;41032;47.818;-3.732;2023-01-23T07:58:16;50.40;;;32.60;;
55136;SDS011;41032;47.818;-3.732;2023-01-23T08:00:43;45.50;;;32.45;;
55136;SDS011;41032;47.818;-3.732;2023-01-23T08:03:10;47.08;;;30.92;;
55136;SDS011;41032;47.818;-3.732;2023-01-23T08:05:37;49.08;;;32.45;;
55136;SDS011;41032;47.818;-3.732;2023-01-23T08:08:05;47.25;;;32.05;;
55136;SDS011;41032;47.818;-3.732;2023-01-23T08:10:33;49.15;;;31.10;;
55136;SDS011;41032;47.818;-3.732;2023-01-23T08:13:01;43.85;;;30.52;;
55136;SDS011;41032;47.818;-3.732;2023-01-23T08:15:28;46.53;;;31.02;;
55136;SDS011;41032;47.818;-3.732;2023-01-23T08:17:56;48.25;;;33.13;;
55136;SDS011;41032;47.818;-3.732;2023-01-23T08:20:24;51.40;;;33.40;;
55136;SDS011;41032;47.818;-3.732;2023-01-23T08:22:53;46.45;;;31.52;;
55136;SDS011;41032;47.818;-3.732;2023-01-23T08:25:23;45.95;;;31.10;;
55136;SDS011;41032;47.818;-3.732;2023-01-23T08:27:52;45.65;;;30.70;;
55136;SDS011;41032;47.818;-3.732;2023-01-23T08:30:20;52.13;;;32.05;;
55136;SDS011;41032;47.818;-3.732;2023-01-23T08:32:48;47.50;;;31.00;;
55136;SDS011;41032;47.818;-3.732;2023-01-23T08:35:17;46.75;;;31.55;;
55136;SDS011;41032;47.818;-3.732;2023-01-23T08:37:45;45.90;;;31.85;;
55136;SDS011;41032;47.818;-3.732;2023-01-23T08:40:13;45.15;;;30.77;;
55136;SDS011;41032;47.818;-3.732;2023-01-23T08:42:42;45.10;;;30.67;;
55136;SDS011;41032;47.818;-3.732;2023-01-23T08:45:10;49.72;;;32.33;;
55136;SDS011;41032;47.818;-3.732;2023-01-23T08:47:38;49.75;;;31.63;;
55136;SDS011;41032;47.818;-3.732;2023-01-23T08:50:07;49.30;;;32.15;;
55136;SDS011;41032;47.818;-3.732;2023-01-23T08:52:36;56.42;;;33.17;;
55136;SDS011;41032;47.818;-3.732;2023-01-23T08:55:04;54.75;;;34.63;;
55136;SDS011;41032;47.818;-3.732;2023-01-23T08:57:32;60.90;;;35.55;;
55136;SDS011;41032;47.818;-3.732;2023-01-23T09:00:01;67.28;;;36.83;;
55136;SDS011;41032;47.818;-3.732;2023-01-23T09:02:30;69.65;;;38.80;;
55136;SDS011;41032;47.818;-3.732;2023-01-23T09:04:58;66.55;;;38.50;;
55136;SDS011;41032;47.818;-3.732;2023-01-23T09:07:25;68.50;;;39.00;;
55136;SDS011;41032;47.818;-3.732;2023-01-23T09:09:54;76.78;;;39.85;;
55136;SDS011;41032;47.818;-3.732;2023-01-23T09:12:22;73.35;;;38.85;;
55136;SDS011;41032;47.818;-3.732;2023-01-23T09:14:50;72.25;;;39.58;;
55136;SDS011;41032;47.818;-3.732;2023-01-23T09:17:18;77.50;;;40.85;;
55136;SDS011;41032;47.818;-3.732;2023-01-23T09:19:46;80.68;;;40.65;;
55136;SDS011;41032;47.818;-3.732;2023-01-23T09:22:15;70.85;;;39.10;;
55136;SDS011;41032;47.818;-3.732;2023-01-23T09:24:42;71.15;;;39.50;;
55136;SDS011;41032;47.818;-3.732;2023-01-23T09:27:10;74.05;;;39.80;;
55136;SDS011;41032;47.818;-3.732;2023-01-23T09:29:39;76.50;;;39.22;;
55136;SDS011;41032;47.818;-3.732;2023-01-23T09:32:07;67.88;;;37.70;;
55136;SDS011;41032;47.818;-3.732;2023-01-23T09:34:35;64.47;;;37.42;;
55136;SDS011;41032;47.818;-3.732;2023-01-23T09:37:03;62.00;;;35.85;;
55136;SDS011;41032;47.818;-3.732;2023-01-23T09:39:32;63.67;;;36.45;;
55136;SDS011;41032;47.818;-3.732;2023-01-23T09:42:02;66.07;;;36.40;;
55136;SDS011;41032;47.818;-3.732;2023-01-23T09:44:37;61.10;;;37.90;;
55136;SDS011;41032;47.818;-3.732;2023-01-23T09:47:27;58.10;;;37.00;;
55136;SDS011;41032;47.818;-3.732;2023-01-23T09:49:55;65.53;;;37.85;;
55136;SDS011;41032;47.818;-3.732;2023-01-23T09:52:27;57.22;;;35.97;;
55136;SDS011;41032;47.818;-3.732;2023-01-23T09:55:11;58.40;;;34.85;;
55136;SDS011;41032;47.818;-3.732;2023-01-23T10:00:34;64.18;;;34.80;;
55136;SDS011;41032;47.818;-3.732;2023-01-23T10:03:02;54.08;;;33.58;;
55136;SDS011;41032;47.818;-3.732;2023-01-23T10:22:09;58.45;;;35.85;;
55136;SDS011;41032;47.818;-3.732;2023-01-23T10:24:52;57.95;;;33.20;;
55136;SDS011;41032;47.818;-3.732;2023-01-23T10:27:23;49.85;;;32.97;;
55136;SDS011;41032;47.818;-3.732;2023-01-23T10:29:59;49.17;;;31.63;;
55136;SDS011;41032;47.818;-3.732;2023-01-23T10:32:31;52.65;;;32.88;;
55136;SDS011;41032;47.818;-3.732;2023-01-23T10:35:15;52.20;;;33.55;;
55136;SDS011;41032;47.818;-3.732;2023-01-23T10:37:47;49.20;;;31.90;;
55136;SDS011;41032;47.818;-3.732;2023-01-23T10:40:18;49.38;;;34.33;;
55136;SDS011;41032;47.818;-3.732;2023-01-23T10:43:26;49.30;;;33.30;;
55136;SDS011;41032;47.818;-3.732;2023-01-23T10:45:54;49.17;;;33.47;;
55136;SDS011;41032;47.818;-3.732;2023-01-23T10:48:41;50.97;;;33.53;;
55136;SDS011;41032;47.818;-3.732;2023-01-23T10:51:30;49.08;;;32.63;;
55136;SDS011;41032;47.818;-3.732;2023-01-23T10:56:34;50.83;;;33.73;;
55136;SDS011;41032;47.818;-3.732;2023-01-23T10:59:04;47.80;;;32.10;;
55136;SDS011;41032;47.818;-3.732;2023-01-23T11:01:38;50.50;;;31.63;;
55136;SDS011;41032;47.818;-3.732;2023-01-23T11:04:09;51.05;;;32.75;;
55136;SDS011;41032;47.818;-3.732;2023-01-23T11:07:31;51.88;;;34.22;;
55136;SDS011;41032;47.818;-3.732;2023-01-23T11:09:44;57.88;;;35.45;;
55136;SDS011;41032;47.818;-3.732;2023-01-23T11:12:14;48.95;;;32.50;;
55136;SDS011;41032;47.818;-3.732;2023-01-23T11:14:44;49.28;;;31.63;;
55136;SDS011;41032;47.818;-3.732;2023-01-23T11:17:14;51.38;;;33.15;;
55136;SDS011;41032;47.818;-3.732;2023-01-23T11:19:43;47.63;;;31.83;;
55136;SDS011;41032;47.818;-3.732;2023-01-23T11:25:16;55.72;;;33.85;;
55136;SDS011;41032;47.818;-3.732;2023-01-23T11:27:57;52.78;;;34.78;;
55136;SDS011;41032;47.818;-3.732;2023-01-23T11:33:09;44.55;;;30.90;;
55136;SDS011;41032;47.818;-3.732;2023-01-23T11:35:51;50.30;;;34.58;;
55136;SDS011;41032;47.818;-3.732;2023-01-23T11:38:23;48.80;;;32.72;;
55136;SDS011;41032;47.818;-3.732;2023-01-23T11:40:52;50.95;;;32.67;;
55136;SDS011;41032;47.818;-3.732;2023-01-23T11:43:19;47.85;;;31.27;;
55136;SDS011;41032;47.818;-3.732;2023-01-23T11:45:51;49.95;;;32.50;;
55136;SDS011;41032;47.818;-3.732;2023-01-23T11:51:17;52.05;;;33.42;;
55136;SDS011;41032;47.818;-3.732;2023-01-23T11:53:52;53.70;;;35.17;;
55136;SDS011;41032;47.818;-3.732;2023-01-23T12:04:46;54.60;;;35.78;;
55136;SDS011;41032;47.818;-3.732;2023-01-23T12:07:19;57.63;;;37.28;;
55136;SDS011;41032;47.818;-3.732;2023-01-23T12:20:44;61.92;;;37.85;;
55136;SDS011;41032;47.818;-3.732;2023-01-23T12:25:57;61.22;;;40.13;;
55136;SDS011;41032;47.818;-3.732;2023-01-23T12:28:35;62.22;;;39.97;;
55136;SDS011;41032;47.818;-3.732;2023-01-23T12:31:34;56.83;;;36.28;;
55136;SDS011;41032;47.818;-3.732;2023-01-23T12:39:39;66.75;;;39.45;;
55136;SDS011;41032;47.818;-3.732;2023-01-23T12:42:20;61.83;;;38.00;;
55136;SDS011;41032;47.818;-3.732;2023-01-23T12:47:39;56.83;;;36.70;;
55136;SDS011;41032;47.818;-3.732;2023-01-23T12:50:13;59.58;;;37.70;;
55136;SDS011;41032;47.818;-3.732;2023-01-23T12:52:46;57.60;;;37.20;;
55136;SDS011;41032;47.818;-3.732;2023-01-23T12:55:27;57.80;;;37.90;;
55136;SDS011;41032;47.818;-3.732;2023-01-23T12:58:01;64.03;;;38.47;;
55136;SDS011;41032;47.818;-3.732;2023-01-23T13:03:21;65.55;;;38.08;;
55136;SDS011;41032;47.818;-3.732;2023-01-23T13:08:35;63.70;;;38.42;;
55136;SDS011;41032;47.818;-3.732;2023-01-23T13:11:09;69.15;;;38.50;;
55136;SDS011;41032;47.818;-3.732;2023-01-23T13:14:02;64.07;;;38.92;;
55136;SDS011;41032;47.818;-3.732;2023-01-23T13:16:44;63.15;;;39.00;;
55136;SDS011;41032;47.818;-3.732;2023-01-23T13:22:14;55.00;;;36.70;;
55136;SDS011;41032;47.818;-3.732;2023-01-23T13:24:44;61.60;;;38.60;;
55136;SDS011;41032;47.818;-3.732;2023-01-23T13:30:44;69.97;;;38.50;;
55136;SDS011;41032;47.818;-3.732;2023-01-23T13:32:52;67.82;;;38.22;;
55136;SDS011;41032;47.818;-3.732;2023-01-23T13:43:40;49.42;;;32.65;;
55136;SDS011;41032;47.818;-3.732;2023-01-23T13:49:40;47.67;;;29.75;;
55136;SDS011;41032;47.818;-3.732;2023-01-23T13:52:16;43.85;;;27.73;;
55136;SDS011;41032;47.818;-3.732;2023-01-23T13:55:28;37.40;;;23.30;;
55136;SDS011;41032;47.818;-3.732;2023-01-23T13:58:16;45.15;;;23.83;;
55136;SDS011;41032;47.818;-3.732;2023-01-23T14:00:49;30.98;;;20.80;;
55136;SDS011;41032;47.818;-3.732;2023-01-23T14:03:39;33.28;;;20.23;;
55136;SDS011;41032;47.818;-3.732;2023-01-23T14:06:31;33.63;;;19.95;;
55136;SDS011;41032;47.818;-3.732;2023-01-23T14:09:00;34.78;;;19.58;;
55136;SDS011;41032;47.818;-3.732;2023-01-23T14:11:36;34.35;;;18.60;;
55136;SDS011;41032;47.818;-3.732;2023-01-23T14:14:07;31.55;;;18.10;;
55136;SDS011;41032;47.818;-3.732;2023-01-23T14:16:54;28.75;;;16.52;;
55136;SDS011;41032;47.818;-3.732;2023-01-23T14:19:27;26.20;;;16.02;;
55136;SDS011;41032;47.818;-3.732;2023-01-23T14:21:56;24.25;;;15.18;;
55136;SDS011;41032;47.818;-3.732;2023-01-23T14:24:26;22.25;;;14.77;;
55136;SDS011;41032;47.818;-3.732;2023-01-23T14:27:00;25.83;;;13.93;;
55136;SDS011;41032;47.818;-3.732;2023-01-23T14:29:33;17.42;;;11.60;;
55136;SDS011;41032;47.818;-3.732;2023-01-23T14:32:02;28.20;;;14.68;;
55136;SDS011;41032;47.818;-3.732;2023-01-23T14:34:37;20.80;;;12.18;;
55136;SDS011;41032;47.818;-3.732;2023-01-23T14:37:05;18.67;;;11.95;;
55136;SDS011;41032;47.818;-3.732;2023-01-23T14:39:37;18.92;;;11.73;;
55136;SDS011;41032;47.818;-3.732;2023-01-23T14:42:04;18.98;;;10.77;;
55136;SDS011;41032;47.818;-3.732;2023-01-23T14:44:42;15.35;;;9.45;;
55136;SDS011;41032;47.818;-3.732;2023-01-23T14:47:16;16.00;;;9.95;;
55136;SDS011;41032;47.818;-3.732;2023-01-23T14:49:51;14.68;;;8.48;;
55136;SDS011;41032;47.818;-3.732;2023-01-23T14:52:23;17.73;;;9.10;;
55136;SDS011;41032;47.818;-3.732;2023-01-23T14:54:54;14.13;;;8.77;;
55136;SDS011;41032;47.818;-3.732;2023-01-23T14:57:23;16.13;;;9.55;;
55136;SDS011;41032;47.818;-3.732;2023-01-23T14:59:55;12.65;;;8.23;;
55136;SDS011;41032;47.818;-3.732;2023-01-23T15:02:26;15.18;;;7.78;;
55136;SDS011;41032;47.818;-3.732;2023-01-23T15:05:39;13.30;;;7.70;;
55136;SDS011;41032;47.818;-3.732;2023-01-23T15:07:46;16.83;;;7.45;;
55136;SDS011;41032;47.818;-3.732;2023-01-23T15:10:35;10.35;;;7.40;;
55136;SDS011;41032;47.818;-3.732;2023-01-23T15:13:12;12.27;;;6.88;;
55136;SDS011;41032;47.818;-3.732;2023-01-23T15:15:43;10.43;;;7.18;;
55136;SDS011;41032;47.818;-3.732;2023-01-23T15:18:33;9.82;;;6.40;;
55136;SDS011;41032;47.818;-3.732;2023-01-23T15:21:01;10.70;;;6.53;;
55136;SDS011;41032;47.818;-3.732;2023-01-23T15:23:31;10.85;;;5.50;;
55136;SDS011;41032;47.818;-3.732;2023-01-23T15:26:24;8.98;;;5.43;;
55136;SDS011;41032;47.818;-3.732;2023-01-23T15:41:55;9.25;;;3.88;;
55136;SDS011;41032;47.818;-3.732;2023-01-23T15:44:26;6.22;;;4.03;;
55136;SDS011;41032;47.818;-3.732;2023-01-23T15:46:55;8.10;;;4.22;;
55136;SDS011;41032;47.818;-3.732;2023-01-23T15:49:26;6.82;;;3.72;;
55136;SDS011;41032;47.818;-3.732;2023-01-23T15:51:56;6.55;;;3.78;;
55136;SDS011;41032;47.818;-3.732;2023-01-23T15:54:27;5.38;;;3.95;;
55136;SDS011;41032;47.818;-3.732;2023-01-23T15:57:00;8.45;;;4.43;;
55136;SDS011;41032;47.818;-3.732;2023-01-23T15:59:29;8.02;;;4.82;;
55136;SDS011;41032;47.818;-3.732;2023-01-23T16:02:01;6.72;;;4.53;;
55136;SDS011;41032;47.818;-3.732;2023-01-23T16:04:29;6.65;;;3.88;;
55136;SDS011;41032;47.818;-3.732;2023-01-23T16:06:58;7.32;;;3.55;;
55136;SDS011;41032;47.818;-3.732;2023-01-23T16:09:32;5.05;;;3.35;;
55136;SDS011;41032;47.818;-3.732;2023-01-23T16:12:02;9.38;;;3.53;;
55136;SDS011;41032;47.818;-3.732;2023-01-23T16:14:30;5.15;;;3.47;;
55136;SDS011;41032;47.818;-3.732;2023-01-23T16:16:57;5.47;;;3.45;;
55136;SDS011;41032;47.818;-3.732;2023-01-23T16:19:26;7.93;;;3.22;;
55136;SDS011;41032;47.818;-3.732;2023-01-23T16:21:54;4.38;;;2.83;;
55136;SDS011;41032;47.818;-3.732;2023-01-23T16:24:22;6.32;;;3.50;;
55136;SDS011;41032;47.818;-3.732;2023-01-23T16:26:50;6.65;;;3.35;;
55136;SDS011;41032;47.818;-3.732;2023-01-23T16:29:23;3.95;;;2.40;;
55136;SDS011;41032;47.818;-3.732;2023-01-23T16:31:53;4.47;;;2.58;;
55136;SDS011;41032;47.818;-3.732;2023-01-23T16:34:21;4.90;;;2.47;;
55136;SDS011;41032;47.818;-3.732;2023-01-23T16:36:48;5.57;;;2.72;;
55136;SDS011;41032;47.818;-3.732;2023-01-23T16:39:19;4.95;;;2.97;;
55136;SDS011;41032;47.818;-3.732;2023-01-23T16:41:49;5.47;;;2.97;;
55136;SDS011;41032;47.818;-3.732;2023-01-23T16:44:19;6.03;;;3.40;;
55136;SDS011;41032;47.818;-3.732;2023-01-23T16:46:48;7.35;;;3.13;;
55136;SDS011;41032;47.818;-3.732;2023-01-23T16:49:17;3.60;;;2.83;;
55136;SDS011;41032;47.818;-3.732;2023-01-23T16:51:46;4.50;;;2.70;;
55136;SDS011;41032;47.818;-3.732;2023-01-23T16:54:23;5.22;;;2.70;;
55136;SDS011;41032;47.818;-3.732;2023-01-23T16:56:51;3.97;;;2.50;;
55136;SDS011;41032;47.818;-3.732;2023-01-23T16:59:25;5.18;;;2.80;;
55136;SDS011;41032;47.818;-3.732;2023-01-23T17:01:54;3.35;;;2.58;;
55136;SDS011;41032;47.818;-3.732;2023-01-23T17:04:21;5.28;;;3.20;;
55136;SDS011;41032;47.818;-3.732;2023-01-23T17:06:49;6.45;;;3.00;;
55136;SDS011;41032;47.818;-3.732;2023-01-23T17:09:16;4.13;;;2.88;;
55136;SDS011;41032;47.818;-3.732;2023-01-23T17:14:16;5.20;;;3.25;;
55136;SDS011;41032;47.818;-3.732;2023-01-23T17:16:59;6.43;;;3.75;;
55136;SDS011;41032;47.818;-3.732;2023-01-23T17:19:33;5.43;;;3.20;;
55136;SDS011;41032;47.818;-3.732;2023-01-23T17:22:02;4.75;;;2.80;;
55136;SDS011;41032;47.818;-3.732;2023-01-23T17:24:30;5.80;;;2.83;;
55136;SDS011;41032;47.818;-3.732;2023-01-23T17:26:58;4.88;;;2.80;;
55136;SDS011;41032;47.818;-3.732;2023-01-23T17:29:26;4.90;;;2.90;;
55136;SDS011;41032;47.818;-3.732;2023-01-23T17:31:54;4.30;;;2.65;;
55136;SDS011;41032;47.818;-3.732;2023-01-23T17:34:23;3.67;;;2.65;;
55136;SDS011;41032;47.818;-3.732;2023-01-23T17:36:52;4.15;;;2.85;;
55136;SDS011;41032;47.818;-3.732;2023-01-23T17:39:19;5.75;;;2.70;;
55136;SDS011;41032;47.818;-3.732;2023-01-23T17:41:47;3.85;;;2.65;;
55136;SDS011;41032;47.818;-3.732;2023-01-23T17:44:15;7.60;;;2.83;;
55136;SDS011;41032;47.818;-3.732;2023-01-23T17:46:43;11.55;;;2.72;;
55136;SDS011;41032;47.818;-3.732;2023-01-23T17:49:30;6.82;;;2.60;;
55136;SDS011;41032;47.818;-3.732;2023-01-23T17:51:58;4.25;;;2.17;;
55136;SDS011;41032;47.818;-3.732;2023-01-23T17:54:26;8.35;;;2.67;;
55136;SDS011;41032;47.818;-3.732;2023-01-23T17:56:54;2.92;;;2.03;;
55136;SDS011;41032;47.818;-3.732;2023-01-23T17:59:21;3.78;;;2.40;;
55136;SDS011;41032;47.818;-3.732;2023-01-23T18:01:48;3.72;;;2.22;;
55136;SDS011;41032;47.818;-3.732;2023-01-23T18:04:17;4.50;;;2.00;;
55136;SDS011;41032;47.818;-3.732;2023-01-23T18:06:46;5.05;;;2.45;;
55136;SDS011;41032;47.818;-3.732;2023-01-23T18:09:14;4.40;;;2.30;;
55136;SDS011;41032;47.818;-3.732;2023-01-23T18:11:44;5.43;;;1.85;;
55136;SDS011;41032;47.818;-3.732;2023-01-23T18:14:29;3.35;;;2.08;;
55136;SDS011;41032;47.818;-3.732;2023-01-23T18:17:28;3.33;;;2.28;;
55136;SDS011;41032;47.818;-3.732;2023-01-23T18:20:06;5.25;;;2.75;;
55136;SDS011;41032;47.818;-3.732;2023-01-23T18:22:43;5.25;;;2.58;;
55136;SDS011;41032;47.818;-3.732;2023-01-23T18:25:12;3.97;;;2.58;;
55136;SDS011;41032;47.818;-3.732;2023-01-23T18:27:41;3.95;;;2.83;;
55136;SDS011;41032;47.818;-3.732;2023-01-23T18:36:13;13.57;;;6.85;;
55136;SDS011;41032;47.818;-3.732;2023-01-23T18:38:24;91.95;;;36.80;;
55136;SDS011;41032;47.818;-3.732;2023-01-23T18:43:33;193.23;;;84.47;;
55136;SDS011;41032;47.818;-3.732;2023-01-23T18:46:03;211.02;;;88.60;;
55136;SDS011;41032;47.818;-3.732;2023-01-23T18:48:33;211.27;;;95.63;;
55136;SDS011;41032;47.818;-3.732;2023-01-23T18:53:58;225.23;;;99.63;;
55136;SDS011;41032;47.818;-3.732;2023-01-23T19:01:47;189.93;;;86.57;;
55136;SDS011;41032;47.818;-3.732;2023-01-23T19:04:20;184.52;;;83.45;;
55136;SDS011;41032;47.818;-3.732;2023-01-23T19:06:56;175.18;;;78.10;;
55136;SDS011;41032;47.818;-3.732;2023-01-23T19:09:25;163.45;;;82.45;;
55136;SDS011;41032;47.818;-3.732;2023-01-23T19:14:45;273.73;;;166.18;;
55136;SDS011;41032;47.818;-3.732;2023-01-23T19:20:25;359.52;;;232.18;;
55136;SDS011;41032;47.818;-3.732;2023-01-23T19:25:50;351.95;;;240.90;;
55136;SDS011;41032;47.818;-3.732;2023-01-23T19:28:18;354.33;;;241.13;;
55136;SDS011;41032;47.818;-3.732;2023-01-23T19:30:47;336.92;;;234.23;;
55136;SDS011;41032;47.818;-3.732;2023-01-23T19:33:16;343.67;;;226.68;;
55136;SDS011;41032;47.818;-3.732;2023-01-23T19:35:45;310.45;;;216.68;;
55136;SDS011;41032;47.818;-3.732;2023-01-23T19:38:14;299.17;;;205.32;;
55136;SDS011;41032;47.818;-3.732;2023-01-23T19:40:42;299.13;;;199.88;;
55136;SDS011;41032;47.818;-3.732;2023-01-23T19:43:14;279.27;;;188.25;;
55136;SDS011;41032;47.818;-3.732;2023-01-23T19:45:43;255.25;;;176.88;;
55136;SDS011;41032;47.818;-3.732;2023-01-23T19:48:11;251.45;;;169.48;;
55136;SDS011;41032;47.818;-3.732;2023-01-23T19:50:39;243.20;;;165.38;;
55136;SDS011;41032;47.818;-3.732;2023-01-23T19:53:10;232.43;;;156.82;;
55136;SDS011;41032;47.818;-3.732;2023-01-23T19:55:39;226.60;;;151.05;;
55136;SDS011;41032;47.818;-3.732;2023-01-23T19:58:07;225.13;;;144.90;;
55136;SDS011;41032;47.818;-3.732;2023-01-23T20:00:35;201.98;;;134.02;;
55136;SDS011;41032;47.818;-3.732;2023-01-23T20:03:04;192.27;;;128.95;;
55136;SDS011;41032;47.818;-3.732;2023-01-23T20:05:32;178.20;;;123.50;;
55136;SDS011;41032;47.818;-3.732;2023-01-23T20:08:01;171.18;;;114.30;;
55136;SDS011;41032;47.818;-3.732;2023-01-23T20:10:29;168.23;;;114.32;;
55136;SDS011;41032;47.818;-3.732;2023-01-23T20:12:58;151.10;;;106.63;;
55136;SDS011;41032;47.818;-3.732;2023-01-23T20:15:28;151.35;;;100.38;;
55136;SDS011;41032;47.818;-3.732;2023-01-23T20:17:56;138.60;;;97.78;;
55136;SDS011;41032;47.818;-3.732;2023-01-23T20:20:25;139.02;;;93.28;;
55136;SDS011;41032;47.818;-3.732;2023-01-23T20:22:53;133.38;;;87.30;;
55136;SDS011;41032;47.818;-3.732;2023-01-23T20:25:22;122.05;;;84.22;;
55136;SDS011;41032;47.818;-3.732;2023-01-23T20:27:50;124.13;;;82.88;;
55136;SDS011;41032;47.818;-3.732;2023-01-23T20:30:19;108.80;;;76.13;;
55136;SDS011;41032;47.818;-3.732;2023-01-23T20:32:47;107.97;;;73.28;;
55136;SDS011;41032;47.818;-3.732;2023-01-23T20:35:15;101.75;;;70.68;;
55136;SDS011;41032;47.818;-3.732;2023-01-23T20:37:44;97.80;;;64.90;;
55136;SDS011;41032;47.818;-3.732;2023-01-23T20:40:12;87.97;;;62.30;;
55136;SDS011;41032;47.818;-3.732;2023-01-23T20:42:42;89.78;;;61.88;;
55136;SDS011;41032;47.818;-3.732;2023-01-23T20:47:59;78.22;;;55.95;;
55136;SDS011;41032;47.818;-3.732;2023-01-23T20:50:27;75.80;;;52.85;;
55136;SDS011;41032;47.818;-3.732;2023-01-23T20:52:55;80.57;;;52.45;;
55136;SDS011;41032;47.818;-3.732;2023-01-23T20:55:42;77.00;;;47.60;;
55136;SDS011;41032;47.818;-3.732;2023-01-23T20:58:11;69.63;;;44.83;;
55136;SDS011;41032;47.818;-3.732;2023-01-23T21:00:58;61.33;;;42.80;;
55136;SDS011;41032;47.818;-3.732;2023-01-23T21:03:27;64.78;;;42.35;;
55136;SDS011;41032;47.818;-3.732;2023-01-23T21:05:56;58.25;;;39.40;;
55136;SDS011;41032;47.818;-3.732;2023-01-23T21:08:24;54.35;;;36.90;;
55136;SDS011;41032;47.818;-3.732;2023-01-23T21:10:53;57.45;;;35.70;;
55136;SDS011;41032;47.818;-3.732;2023-01-23T21:13:21;49.05;;;35.13;;
55136;SDS011;41032;47.818;-3.732;2023-01-23T21:16:00;50.55;;;32.45;;
55136;SDS011;41032;47.818;-3.732;2023-01-23T21:18:33;46.13;;;31.85;;
55136;SDS011;41032;47.818;-3.732;2023-01-23T21:21:04;43.20;;;28.92;;
55136;SDS011;41032;47.818;-3.732;2023-01-23T21:23:33;43.88;;;28.60;;
55136;SDS011;41032;47.818;-3.732;2023-01-23T21:26:02;39.38;;;27.85;;
55136;SDS011;41032;47.818;-3.732;2023-01-23T21:28:32;35.63;;;24.42;;
55136;SDS011;41032;47.818;-3.732;2023-01-23T21:31:06;35.17;;;24.83;;
55136;SDS011;41032;47.818;-3.732;2023-01-23T21:33:35;34.70;;;23.48;;
55136;SDS011;41032;47.818;-3.732;2023-01-23T21:36:05;34.40;;;23.10;;
55136;SDS011;41032;47.818;-3.732;2023-01-23T21:38:34;30.08;;;21.60;;
55136;SDS011;41032;47.818;-3.732;2023-01-23T21:41:02;29.08;;;20.05;;
55136;SDS011;41032;47.818;-3.732;2023-01-23T21:43:31;29.42;;;19.52;;
55136;SDS011;41032;47.818;-3.732;2023-01-23T21:45:59;26.40;;;18.10;;
55136;SDS011;41032;47.818;-3.732;2023-01-23T21:48:28;24.92;;;18.02;;
55136;SDS011;41032;47.818;-3.732;2023-01-23T21:51:03;23.88;;;16.45;;
55136;SDS011;41032;47.818;-3.732;2023-01-23T21:56:01;22.42;;;16.08;;
55136;SDS011;41032;47.818;-3.732;2023-01-23T21:58:29;21.95;;;14.90;;
55136;SDS011;41032;47.818;-3.732;2023-01-23T22:00:58;20.20;;;14.35;;
55136;SDS011;41032;47.818;-3.732;2023-01-23T22:03:45;19.80;;;14.13;;
55136;SDS011;41032;47.818;-3.732;2023-01-23T22:06:14;18.65;;;13.30;;
55136;SDS011;41032;47.818;-3.732;2023-01-23T22:08:43;25.58;;;14.93;;
55136;SDS011;41032;47.818;-3.732;2023-01-23T22:11:11;17.55;;;12.20;;
55136;SDS011;41032;47.818;-3.732;2023-01-23T22:13:40;19.33;;;12.77;;
55136;SDS011;41032;47.818;-3.732;2023-01-23T22:16:09;16.50;;;10.85;;
55136;SDS011;41032;47.818;-3.732;2023-01-23T22:18:37;16.25;;;11.07;;
55136;SDS011;41032;47.818;-3.732;2023-01-23T22:21:06;12.75;;;9.80;;
55136;SDS011;41032;47.818;-3.732;2023-01-23T22:23:34;13.57;;;10.07;;
55136;SDS011;41032;47.818;-3.732;2023-01-23T22:26:03;14.88;;;10.18;;
55136;SDS011;41032;47.818;-3.732;2023-01-23T22:28:33;13.98;;;9.98;;
